createdAt,value
2018-03-24T00:01:24.429Z,93723.13
2018-03-24T00:03:51.066Z,93714.80
2018-03-24T00:06:17.604Z,93708.80
2018-03-24T00:08:44.142Z,93722.86
2018-03-24T00:11:10.947Z,93720.27
2018-03-24T00:13:37.490Z,93717.40
2018-03-24T00:16:04.510Z,93717.00
2018-03-24T00:18:31.215Z,93715.32
2018-03-24T00:20:57.684Z,93710.81
2018-03-24T00:23:24.446Z,93705.86
2018-03-24T00:25:51.154Z,93714.29
2018-03-24T00:28:17.850Z,93714.84
2018-03-24T00:30:44.922Z,93702.25
2018-03-24T00:33:11.780Z,93701.70
2018-03-24T00:35:38.368Z,93702.44
2018-03-24T00:38:05.117Z,93706.24
2018-03-24T00:40:32.116Z,93711.47
2018-03-24T00:42:59.016Z,93711.39
2018-03-24T00:45:25.759Z,93713.61
2018-03-24T00:47:52.221Z,93716.25
2018-03-24T00:50:18.862Z,93713.42
2018-03-24T00:52:45.747Z,93713.39
2018-03-24T00:55:12.949Z,93718.15
2018-03-24T00:57:39.742Z,93716.19
2018-03-24T01:00:06.512Z,93721.78
2018-03-24T01:02:33.306Z,93715.66
2018-03-24T01:04:59.861Z,93711.92
2018-03-24T01:07:26.362Z,93703.53
2018-03-24T01:09:53.012Z,93719.17
2018-03-24T01:12:19.624Z,93717.52
2018-03-24T01:14:46.005Z,93717.95
2018-03-24T01:17:12.786Z,93715.34
2018-03-24T01:19:39.183Z,93717.00
2018-03-24T01:22:05.972Z,93715.97
2018-03-24T01:24:32.588Z,93720.03
2018-03-24T01:26:58.976Z,93711.28
2018-03-24T01:29:26.035Z,93702.38
2018-03-24T01:31:52.859Z,93709.73
2018-03-24T01:34:20.041Z,93716.59
2018-03-24T01:36:46.641Z,93703.25
2018-03-24T01:39:13.121Z,93704.73
2018-03-24T01:41:39.508Z,93705.38
2018-03-24T01:44:06.770Z,93704.33
2018-03-24T01:46:33.727Z,93701.05
2018-03-24T01:49:00.351Z,93712.05
2018-03-24T01:51:26.967Z,93715.97
2018-03-24T01:53:53.857Z,93710.67
2018-03-24T01:56:20.405Z,93714.21
2018-03-24T01:58:47.086Z,93712.78
2018-03-24T02:01:13.868Z,93725.98
2018-03-24T02:03:40.524Z,93728.01
2018-03-24T02:06:07.152Z,93721.58
2018-03-24T02:11:07.537Z,93731.45
2018-03-24T02:13:34.003Z,93735.74
2018-03-24T02:16:00.676Z,93734.70
2018-03-24T02:18:27.487Z,93734.38
2018-03-24T02:20:55.061Z,93730.52
2018-03-24T02:23:21.820Z,93720.45
2018-03-24T02:25:48.470Z,93723.05
2018-03-24T02:28:15.153Z,93719.34
2018-03-24T02:30:41.832Z,93721.11
2018-03-24T02:33:08.477Z,93719.47
2018-03-24T02:35:35.202Z,93712.23
2018-03-24T02:38:01.791Z,93716.00
2018-03-24T02:40:28.742Z,93719.20
2018-03-24T02:42:55.694Z,93720.73
2018-03-24T02:45:22.726Z,93717.83
2018-03-24T02:47:49.746Z,93724.04
2018-03-24T02:50:16.403Z,93716.17
2018-03-24T02:52:43.393Z,93715.41
2018-03-24T02:55:10.537Z,93720.06
2018-03-24T02:57:37.461Z,93719.51
2018-03-24T03:00:04.153Z,93719.47
2018-03-24T03:02:30.891Z,93717.72
2018-03-24T03:04:57.722Z,93716.47
2018-03-24T03:07:24.240Z,93721.13
2018-03-24T03:09:50.827Z,93720.19
2018-03-24T03:12:17.769Z,93725.66
2018-03-24T03:14:44.606Z,93723.38
2018-03-24T03:17:11.595Z,93727.40
2018-03-24T03:19:38.442Z,93739.47
2018-03-24T03:22:05.515Z,93740.44
2018-03-24T03:24:32.188Z,93743.23
2018-03-24T03:26:58.594Z,93738.65
2018-03-24T03:29:25.080Z,93739.59
2018-03-24T03:31:52.685Z,93745.45
2018-03-24T03:34:19.892Z,93738.62
2018-03-24T03:36:46.298Z,93731.08
2018-03-24T03:39:13.296Z,93730.42
2018-03-24T03:41:39.858Z,93734.70
2018-03-24T03:44:06.532Z,93738.19
2018-03-24T03:46:33.393Z,93744.74
2018-03-24T03:49:00.027Z,93749.86
2018-03-24T03:51:26.743Z,93752.29
2018-03-24T03:53:53.509Z,93754.16
2018-03-24T03:56:20.107Z,93756.77
2018-03-24T03:58:46.691Z,93760.35
2018-03-24T04:01:13.279Z,93766.34
2018-03-24T04:03:40.567Z,93763.28
2018-03-24T04:06:07.203Z,93764.91
2018-03-24T04:08:34.175Z,93776.45
2018-03-24T04:11:01.363Z,93772.33
2018-03-24T04:13:28.116Z,93775.39
2018-03-24T04:15:54.642Z,93777.59
2018-03-24T04:18:21.342Z,93784.88
2018-03-24T04:20:47.974Z,93777.80
2018-03-24T04:23:14.803Z,93774.83
2018-03-24T04:25:41.529Z,93778.09
2018-03-24T04:28:09.119Z,93786.91
2018-03-24T04:30:35.742Z,93783.19
2018-03-24T04:33:02.975Z,93790.45
2018-03-24T04:35:29.619Z,93790.93
2018-03-24T04:37:56.484Z,93797.45
2018-03-24T04:40:23.163Z,93786.40
2018-03-24T04:42:49.851Z,93795.84
2018-03-24T04:45:16.871Z,93799.19
2018-03-24T04:47:44.200Z,93805.41
2018-03-24T04:50:11.226Z,93814.81
2018-03-24T04:52:37.679Z,93810.66
2018-03-24T04:55:04.297Z,93813.00
2018-03-24T04:57:30.883Z,93803.59
2018-03-24T04:59:57.957Z,93806.00
2018-03-24T05:02:24.365Z,93816.37
2018-03-24T05:04:51.374Z,93822.63
2018-03-24T05:07:17.843Z,93818.07
2018-03-24T05:09:44.573Z,93818.14
2018-03-24T05:12:11.662Z,93825.52
2018-03-24T05:14:38.375Z,93830.02
2018-03-24T05:17:05.050Z,93828.95
2018-03-24T05:19:31.649Z,93832.00
2018-03-24T05:21:58.519Z,93834.09
2018-03-24T05:24:25.607Z,93838.67
2018-03-24T05:26:52.409Z,93847.73
2018-03-24T05:29:19.554Z,93842.14
2018-03-24T05:31:46.513Z,93847.20
2018-03-24T05:34:13.434Z,93854.71
2018-03-24T05:36:40.171Z,93853.72
2018-03-24T05:39:07.266Z,93853.61
2018-03-24T05:41:34.036Z,93856.49
2018-03-24T05:44:00.805Z,93855.56
2018-03-24T05:46:27.457Z,93866.25
2018-03-24T05:48:54.642Z,93862.97
2018-03-24T05:51:21.489Z,93873.21
2018-03-24T05:53:48.453Z,93883.30
2018-03-24T05:56:15.343Z,93874.16
2018-03-24T05:58:41.794Z,93875.11
2018-03-24T06:01:08.590Z,93882.31
2018-03-24T06:03:35.446Z,93893.20
2018-03-24T06:06:01.848Z,93882.91
2018-03-24T06:08:29.008Z,93891.80
2018-03-24T06:10:55.702Z,93893.13
2018-03-24T06:13:22.847Z,93885.28
2018-03-24T06:15:49.501Z,93894.02
2018-03-24T06:18:17.130Z,93898.67
2018-03-24T06:20:45.378Z,93903.48
2018-03-24T06:23:11.982Z,93905.84
2018-03-24T06:25:38.629Z,93906.80
2018-03-24T06:28:05.099Z,93907.92
2018-03-24T06:30:33.649Z,93910.80
2018-03-24T06:33:00.195Z,93912.09
2018-03-24T06:35:27.026Z,93908.70
2018-03-24T06:37:53.512Z,93905.28
2018-03-24T06:40:20.180Z,93910.56
2018-03-24T06:42:47.295Z,93912.62
2018-03-24T06:45:14.009Z,93914.11
2018-03-24T06:47:40.619Z,93927.02
2018-03-24T06:50:07.210Z,93927.66
2018-03-24T06:52:33.806Z,93927.37
2018-03-24T06:55:00.442Z,93928.69
2018-03-24T06:57:27.457Z,93928.65
2018-03-24T06:59:54.730Z,93938.67
2018-03-24T07:02:21.291Z,93939.79
2018-03-24T07:04:48.019Z,93935.92
2018-03-24T07:07:14.412Z,93944.84
2018-03-24T07:09:40.932Z,93942.69
2018-03-24T07:12:07.731Z,93944.19
2018-03-24T07:14:34.300Z,93950.44
2018-03-24T07:17:01.022Z,93961.50
2018-03-24T07:19:27.512Z,93961.11
2018-03-24T07:21:54.775Z,93970.77
2018-03-24T07:24:21.482Z,93970.77
2018-03-24T07:26:47.970Z,93968.74
2018-03-24T07:29:15.007Z,93973.47
2018-03-24T07:31:41.718Z,93978.27
2018-03-24T07:34:08.597Z,93987.58
2018-03-24T07:36:42.096Z,93981.17
2018-03-24T07:39:08.701Z,93988.80
2018-03-24T07:41:36.687Z,93986.45
2018-03-24T07:44:03.522Z,93991.09
2018-03-24T07:46:30.071Z,93992.17
2018-03-24T07:48:56.865Z,93996.70
2018-03-24T07:51:23.742Z,93987.18
2018-03-24T07:53:50.347Z,93990.59
2018-03-24T07:56:16.880Z,93987.11
2018-03-24T07:58:43.436Z,94000.42
2018-03-24T08:01:10.269Z,93988.41
2018-03-24T08:03:37.130Z,93993.53
2018-03-24T08:06:03.850Z,93997.56
2018-03-24T08:08:30.862Z,93998.89
2018-03-24T08:10:57.584Z,93998.51
2018-03-24T08:13:24.081Z,93994.09
2018-03-24T08:15:51.159Z,93996.12
2018-03-24T08:18:17.811Z,94000.87
2018-03-24T08:20:44.446Z,93993.66
2018-03-24T08:23:11.308Z,93994.13
2018-03-24T08:25:37.822Z,94001.22
2018-03-24T08:28:04.345Z,94007.11
2018-03-24T08:30:31.041Z,94009.55
2018-03-24T08:32:57.745Z,94017.03
2018-03-24T08:35:24.136Z,94017.53
2018-03-24T08:37:50.893Z,94024.02
2018-03-24T08:40:17.445Z,94024.45
2018-03-24T08:42:44.172Z,94025.31
2018-03-24T08:45:11.086Z,94026.12
2018-03-24T08:47:37.680Z,94029.39
2018-03-24T08:50:04.351Z,94029.03
2018-03-24T08:52:30.756Z,94037.97
2018-03-24T08:54:57.576Z,94036.22
2018-03-24T08:57:24.335Z,94036.20
2018-03-24T08:59:51.157Z,94040.37
2018-03-24T09:02:17.638Z,94047.55
2018-03-24T09:04:44.133Z,94051.70
2018-03-24T09:07:10.924Z,94056.56
2018-03-24T09:09:37.533Z,94055.39
2018-03-24T09:12:04.051Z,94055.77
2018-03-24T09:14:30.606Z,94057.28
2018-03-24T09:16:57.273Z,94048.33
2018-03-24T09:19:23.759Z,94048.92
2018-03-24T09:21:51.393Z,94050.66
2018-03-24T09:24:17.827Z,94049.88
2018-03-24T09:26:44.306Z,94056.59
2018-03-24T09:29:10.870Z,94055.34
2018-03-24T09:31:37.271Z,94053.36
2018-03-24T09:34:03.823Z,94054.78
2018-03-24T09:36:30.229Z,94057.34
2018-03-24T09:38:56.854Z,94059.58
2018-03-24T09:41:23.371Z,94065.05
2018-03-24T09:43:49.741Z,94073.16
2018-03-24T09:46:16.219Z,94071.80
2018-03-24T09:48:42.714Z,94070.00
2018-03-24T09:51:09.067Z,94063.19
2018-03-24T09:53:35.488Z,94069.66
2018-03-24T09:56:02.034Z,94073.92
2018-03-24T09:58:28.595Z,94069.91
2018-03-24T10:00:55.370Z,94074.88
2018-03-24T10:03:21.759Z,94071.68
2018-03-24T10:05:48.228Z,94075.63
2018-03-24T10:08:14.786Z,94072.97
2018-03-24T10:10:41.479Z,94078.45
2018-03-24T10:13:08.149Z,94075.52
2018-03-24T10:18:07.863Z,94073.70
2018-03-24T10:23:54.427Z,94074.08
2018-03-24T10:26:21.080Z,94080.58
2018-03-24T10:28:47.727Z,94081.83
2018-03-24T10:31:14.299Z,94079.58
2018-03-24T10:33:47.028Z,94090.42
2018-03-24T10:36:13.535Z,94092.64
2018-03-24T10:38:40.215Z,94088.81
2018-03-24T10:41:06.649Z,94091.09
2018-03-24T10:43:41.628Z,94085.89
2018-03-24T10:46:08.750Z,94089.82
2018-03-24T10:48:42.304Z,94085.24
2018-03-24T10:51:08.793Z,94087.27
2018-03-24T10:53:35.275Z,94084.69
2018-03-24T10:56:01.963Z,94092.80
2018-03-24T10:58:28.483Z,94087.44
2018-03-24T11:01:01.053Z,94093.47
2018-03-24T11:03:27.936Z,94089.82
2018-03-24T11:05:54.556Z,94088.54
2018-03-24T11:08:21.074Z,94089.88
2018-03-24T11:10:47.474Z,94098.08
2018-03-24T11:13:14.093Z,94097.81
2018-03-24T11:15:40.542Z,94094.81
2018-03-24T11:18:07.070Z,94094.27
2018-03-24T11:20:33.527Z,94091.22
2018-03-24T11:22:59.902Z,94099.05
2018-03-24T11:25:28.543Z,94093.53
2018-03-24T11:27:55.241Z,94095.53
2018-03-24T11:30:22.534Z,94104.20
2018-03-24T11:32:49.084Z,94107.38
2018-03-24T11:35:15.498Z,94102.30
2018-03-24T11:37:42.266Z,94104.97
2018-03-24T11:40:08.812Z,94113.48
2018-03-24T11:42:35.249Z,94104.82
2018-03-24T11:45:01.956Z,94112.89
2018-03-24T11:47:28.908Z,94110.00
2018-03-24T11:49:55.638Z,94117.64
2018-03-24T11:52:22.107Z,94114.20
2018-03-24T11:54:49.217Z,94115.92
2018-03-24T11:57:15.758Z,94110.94
2018-03-24T11:59:42.250Z,94118.09
2018-03-24T12:02:08.691Z,94121.02
2018-03-24T12:04:35.329Z,94124.10
2018-03-24T12:07:01.774Z,94125.55
2018-03-24T12:09:28.255Z,94123.30
2018-03-24T12:11:54.839Z,94119.14
2018-03-24T12:14:21.349Z,94131.05
2018-03-24T12:16:47.773Z,94128.83
2018-03-24T12:19:14.408Z,94128.11
2018-03-24T12:21:41.092Z,94130.32
2018-03-24T12:24:07.919Z,94124.50
2018-03-24T12:26:34.493Z,94125.13
2018-03-24T12:29:01.037Z,94136.84
2018-03-24T12:31:27.786Z,94132.49
2018-03-24T12:33:54.209Z,94134.30
2018-03-24T12:36:20.904Z,94139.30
2018-03-24T12:38:47.418Z,94138.52
2018-03-24T12:41:13.841Z,94143.42
2018-03-24T12:43:40.215Z,94143.50
2018-03-24T12:46:06.912Z,94141.45
2018-03-24T12:48:33.440Z,94137.21
2018-03-24T12:50:59.973Z,94132.05
2018-03-24T12:53:26.381Z,94138.81
2018-03-24T12:55:52.859Z,94134.68
2018-03-24T12:58:26.429Z,94132.32
2018-03-24T13:00:53.179Z,94137.20
2018-03-24T13:03:19.762Z,94144.56
2018-03-24T13:05:46.349Z,94143.62
2018-03-24T13:08:12.974Z,94147.02
2018-03-24T13:10:39.365Z,94149.23
2018-03-24T13:13:05.750Z,94155.46
2018-03-24T13:15:32.855Z,94151.14
2018-03-24T13:17:59.290Z,94159.20
2018-03-24T13:20:25.692Z,94159.16
2018-03-24T13:22:52.131Z,94162.28
2018-03-24T13:25:18.674Z,94165.76
2018-03-24T13:27:45.173Z,94166.70
2018-03-24T13:30:11.794Z,94168.54
2018-03-24T13:32:45.566Z,94167.14
2018-03-24T13:35:12.141Z,94167.88
2018-03-24T13:37:38.605Z,94174.74
2018-03-24T13:40:05.071Z,94182.17
2018-03-24T13:42:31.637Z,94181.65
2018-03-24T13:44:58.098Z,94185.68
2018-03-24T13:47:24.709Z,94186.28
2018-03-24T13:49:51.449Z,94186.19
2018-03-24T13:52:18.054Z,94187.23
2018-03-24T13:54:44.698Z,94188.02
2018-03-24T13:57:11.305Z,94196.41
2018-03-24T13:59:37.748Z,94196.69
2018-03-24T14:02:04.343Z,94200.51
2018-03-24T14:04:30.921Z,94208.28
2018-03-24T14:06:57.586Z,94209.31
2018-03-24T14:09:24.455Z,94208.48
2018-03-24T14:11:51.146Z,94210.34
2018-03-24T14:14:17.582Z,94217.62
2018-03-24T14:16:44.285Z,94220.09
2018-03-24T14:19:11.031Z,94225.69
2018-03-24T14:21:37.741Z,94227.12
2018-03-24T14:24:04.338Z,94229.95
2018-03-24T14:26:30.810Z,94231.98
2018-03-24T14:28:57.226Z,94232.73
2018-03-24T14:31:23.874Z,94235.46
2018-03-24T14:33:50.659Z,94235.77
2018-03-24T14:36:17.201Z,94247.72
2018-03-24T14:38:43.689Z,94245.87
2018-03-24T14:41:10.290Z,94245.28
2018-03-24T14:43:36.758Z,94244.09
2018-03-24T14:46:03.242Z,94244.49
2018-03-24T14:48:29.697Z,94260.00
2018-03-24T14:50:56.093Z,94256.95
2018-03-24T14:53:22.877Z,94269.23
2018-03-24T14:55:49.563Z,94263.88
2018-03-24T14:58:16.161Z,94269.94
2018-03-24T15:00:43.007Z,94275.25
2018-03-24T15:03:09.506Z,94276.98
2018-03-24T15:05:36.110Z,94277.97
2018-03-24T15:08:02.790Z,94280.83
2018-03-24T15:10:29.146Z,94278.92
2018-03-24T15:12:55.593Z,94292.03
2018-03-24T15:15:22.124Z,94300.26
2018-03-24T15:17:48.754Z,94294.61
2018-03-24T15:20:15.464Z,94297.94
2018-03-24T15:22:42.096Z,94301.55
2018-03-24T15:25:08.488Z,94300.66
2018-03-24T15:27:34.925Z,94306.72
2018-03-24T15:30:13.863Z,94308.09
2018-03-24T15:32:52.172Z,94312.69
2018-03-24T15:35:32.706Z,94316.03
2018-03-24T15:37:59.405Z,94321.55
2018-03-24T15:40:25.987Z,94328.61
2018-03-24T15:42:52.483Z,94335.00
2018-03-24T15:45:18.982Z,94334.23
2018-03-24T15:47:45.844Z,94335.84
2018-03-24T15:50:12.394Z,94343.69
2018-03-24T15:52:38.965Z,94346.97
2018-03-24T15:55:05.383Z,94341.27
2018-03-24T15:57:31.970Z,94354.59
2018-03-24T15:59:58.396Z,94345.94
2018-03-24T16:02:24.899Z,94359.37
2018-03-24T16:04:51.405Z,94356.59
2018-03-24T16:07:17.880Z,94359.30
2018-03-24T16:09:44.638Z,94371.16
2018-03-24T16:12:11.253Z,94374.89
2018-03-24T16:14:37.881Z,94380.80
2018-03-24T16:25:44.978Z,94406.93
2018-03-24T16:28:11.444Z,94407.93
2018-03-24T16:30:37.874Z,94410.05
2018-03-24T16:33:04.836Z,94405.44
2018-03-24T16:35:31.476Z,94409.52
2018-03-24T16:37:58.205Z,94410.14
2018-03-24T16:40:25.075Z,94419.35
2018-03-24T16:42:52.155Z,94412.31
2018-03-24T16:45:19.126Z,94421.94
2018-03-24T16:47:45.990Z,94421.23
2018-03-24T16:50:13.327Z,94418.64
2018-03-24T16:52:40.274Z,94414.25
2018-03-24T16:55:06.846Z,94422.19
2018-03-24T16:57:33.863Z,94425.31
2018-03-24T17:00:04.272Z,94426.94
2018-03-24T17:02:31.460Z,94429.33
2018-03-24T17:04:58.073Z,94446.19
2018-03-24T17:07:24.819Z,94440.55
2018-03-24T17:09:51.417Z,94450.42
2018-03-24T17:12:23.599Z,94444.52
2018-03-24T17:14:50.292Z,94447.45
2018-03-24T17:17:18.105Z,94450.60
2018-03-24T17:19:45.344Z,94447.24
2018-03-24T17:22:15.112Z,94450.88
2018-03-24T17:24:42.362Z,94449.05
2018-03-24T17:27:09.506Z,94448.23
2018-03-24T17:29:36.048Z,94449.05
2018-03-24T17:32:03.116Z,94446.87
2018-03-24T17:34:30.171Z,94450.09
2018-03-24T17:36:58.301Z,94457.24
2018-03-24T17:39:26.857Z,94453.83
2018-03-24T17:41:54.589Z,94455.47
2018-03-24T17:44:21.099Z,94457.78
2018-03-24T17:46:48.022Z,94459.22
2018-03-24T17:49:16.590Z,94451.52
2018-03-24T17:51:45.165Z,94463.06
2018-03-24T17:54:12.080Z,94464.31
2018-03-24T17:56:38.528Z,94469.45
2018-03-24T17:59:05.729Z,94475.17
2018-03-24T18:01:32.769Z,94479.55
2018-03-24T18:03:59.499Z,94481.95
2018-03-24T18:06:26.385Z,94480.91
2018-03-24T18:08:53.795Z,94493.11
2018-03-24T18:11:20.324Z,94492.54
2018-03-24T18:13:47.387Z,94498.13
2018-03-24T18:16:14.136Z,94507.77
2018-03-24T18:18:40.723Z,94502.72
2018-03-24T18:21:08.704Z,94511.94
2018-03-24T18:23:36.526Z,94511.98
2018-03-24T18:26:03.332Z,94510.47
2018-03-24T18:28:30.358Z,94517.38
2018-03-24T18:30:57.262Z,94516.58
2018-03-24T18:33:24.139Z,94521.87
2018-03-24T18:35:51.258Z,94516.88
2018-03-24T18:38:18.347Z,94521.13
2018-03-24T18:40:46.762Z,94519.91
2018-03-24T18:43:13.428Z,94525.84
2018-03-24T18:45:40.815Z,94529.12
2018-03-24T18:48:07.332Z,94530.41
2018-03-24T18:50:34.027Z,94532.83
2018-03-24T18:53:00.667Z,94528.64
2018-03-24T18:55:28.202Z,94532.57
2018-03-24T18:57:54.843Z,94536.92
2018-03-24T19:00:22.116Z,94546.92
2018-03-24T19:02:49.062Z,94547.44
2018-03-24T19:05:16.106Z,94544.00
2018-03-24T19:07:43.532Z,94549.48
2018-03-24T19:10:10.379Z,94550.00
2018-03-24T19:12:37.303Z,94554.57
2018-03-24T19:15:04.826Z,94559.02
2018-03-24T19:17:32.080Z,94561.22
2018-03-24T19:19:59.604Z,94568.52
2018-03-24T19:22:26.879Z,94569.87
2018-03-24T19:24:54.163Z,94569.44
2018-03-24T19:27:21.209Z,94577.41
2018-03-24T19:29:49.001Z,94576.53
2018-03-24T19:32:16.733Z,94576.30
2018-03-24T19:34:43.327Z,94576.65
2018-03-24T19:37:10.565Z,94580.19
2018-03-24T19:39:37.927Z,94589.39
2018-03-24T19:42:05.003Z,94590.37
2018-03-24T19:44:31.872Z,94590.81
2018-03-24T19:46:59.121Z,94591.66
2018-03-24T19:49:26.510Z,94594.94
2018-03-24T19:51:53.155Z,94598.95
2018-03-24T19:54:20.023Z,94597.84
2018-03-24T19:56:46.754Z,94593.88
2018-03-24T19:59:13.456Z,94598.17
2018-03-24T20:01:40.049Z,94598.59
2018-03-24T20:04:06.965Z,94599.52
2018-03-24T20:06:34.013Z,94605.43
2018-03-24T20:09:00.771Z,94611.17
2018-03-24T20:11:27.809Z,94607.85
2018-03-24T20:13:54.902Z,94602.18
2018-03-24T20:16:21.412Z,94597.63
2018-03-24T20:18:47.998Z,94599.72
2018-03-24T20:21:15.086Z,94591.18
2018-03-24T20:23:41.649Z,94591.88
2018-03-24T20:26:08.233Z,94593.62
2018-03-24T20:28:35.304Z,94602.17
2018-03-24T20:31:02.758Z,94610.55
2018-03-24T20:33:30.276Z,94612.98
2018-03-24T20:35:57.181Z,94620.87
2018-03-24T20:38:24.600Z,94613.39
2018-03-24T20:40:51.219Z,94615.88
2018-03-24T20:43:19.087Z,94616.20
2018-03-24T20:45:46.497Z,94618.77
2018-03-24T20:48:13.730Z,94623.57
2018-03-24T20:50:40.270Z,94624.89
2018-03-24T20:53:06.975Z,94625.86
2018-03-24T20:55:33.703Z,94624.22
2018-03-24T20:58:00.763Z,94612.92
2018-03-24T21:00:27.308Z,94613.50
2018-03-24T21:02:54.955Z,94618.46
2018-03-24T21:05:21.815Z,94627.53
2018-03-24T21:07:48.309Z,94613.31
2018-03-24T21:10:15.057Z,94622.70
2018-03-24T21:12:41.553Z,94627.63
2018-03-24T21:15:11.306Z,94623.28
2018-03-24T21:17:38.388Z,94623.17
2018-03-24T21:20:05.282Z,94621.14
2018-03-24T21:22:31.882Z,94616.28
2018-03-24T21:24:58.454Z,94613.53
2018-03-24T21:27:25.311Z,94617.29
2018-03-24T21:29:52.323Z,94615.00
2018-03-24T21:32:19.110Z,94611.94
2018-03-24T21:34:46.061Z,94617.42
2018-03-24T21:37:13.277Z,94610.58
2018-03-24T21:39:39.886Z,94610.41
2018-03-24T21:42:06.459Z,94617.65
2018-03-24T21:44:33.114Z,94620.39
2018-03-24T21:47:00.151Z,94628.57
2018-03-24T21:49:26.928Z,94627.63
2018-03-24T21:51:53.573Z,94625.37
2018-03-24T21:54:20.254Z,94630.22
2018-03-24T21:56:46.781Z,94629.91
2018-03-24T21:59:13.600Z,94629.47
2018-03-24T22:01:40.130Z,94626.34
2018-03-24T22:04:06.963Z,94624.30
2018-03-24T22:06:33.833Z,94623.56
2018-03-24T22:09:00.237Z,94624.81
2018-03-24T22:11:27.197Z,94623.05
2018-03-24T22:13:53.848Z,94622.98
2018-03-24T22:16:20.534Z,94629.30
2018-03-24T22:18:47.208Z,94624.27
2018-03-24T22:21:13.824Z,94623.98
2018-03-24T22:23:41.047Z,94624.36
2018-03-24T22:26:07.498Z,94622.11
2018-03-24T22:28:34.250Z,94630.79
2018-03-24T22:31:01.218Z,94630.24
2018-03-24T22:33:28.399Z,94628.14
2018-03-24T22:35:54.835Z,94634.19
2018-03-24T22:38:21.459Z,94639.70
2018-03-24T22:40:47.981Z,94644.87
2018-03-24T22:43:14.419Z,94644.19
2018-03-24T22:45:41.063Z,94639.88
2018-03-24T22:48:07.462Z,94646.26
2018-03-24T22:50:34.187Z,94640.67
2018-03-24T22:53:00.842Z,94642.70
2018-03-24T22:55:27.346Z,94638.94
2018-03-24T22:57:53.741Z,94641.33
2018-03-24T23:00:20.911Z,94638.73
2018-03-24T23:02:47.939Z,94646.52
2018-03-24T23:05:14.504Z,94644.75
2018-03-24T23:07:41.135Z,94645.67
2018-03-24T23:10:07.686Z,94644.77
2018-03-24T23:12:34.107Z,94647.76
2018-03-24T23:15:00.615Z,94654.28
2018-03-24T23:17:27.067Z,94652.75
2018-03-24T23:19:53.932Z,94655.53
2018-03-24T23:22:20.848Z,94654.00
2018-03-24T23:24:47.458Z,94655.95
2018-03-24T23:27:14.115Z,94659.63
2018-03-24T23:29:40.947Z,94655.88
2018-03-24T23:32:07.585Z,94661.73
2018-03-24T23:34:34.448Z,94655.61
2018-03-24T23:37:01.016Z,94660.80
2018-03-24T23:39:27.793Z,94660.69
2018-03-24T23:41:54.490Z,94660.05
2018-03-24T23:44:21.130Z,94668.75
2018-03-24T23:46:47.865Z,94665.28
2018-03-24T23:49:14.525Z,94667.56
2018-03-24T23:51:41.213Z,94661.00
2018-03-24T23:54:07.946Z,94667.58
2018-03-24T23:56:34.429Z,94668.88
2018-03-24T23:59:01.202Z,94664.59
